sensor_id;sensor_type;location;lat;lon;timestamp;pressure;altitude;pressure_sealevel;temperature;humidity
66742;BME280;53654;54.152;19.432;2023-05-15T00:00:28;101422.77;;;18.29;38.39
66742;BME280;53654;54.152;19.432;2023-05-15T00:03:17;101423.52;;;18.21;38.53
66742;BME280;53654;54.152;19.432;2023-05-15T00:05:46;101418.76;;;18.15;38.71
66742;BME280;53654;54.152;19.432;2023-05-15T00:08:14;101416.20;;;18.12;38.73
66742;BME280;53654;54.152;19.432;2023-05-15T00:10:42;101413.90;;;18.06;38.94
66742;BME280;53654;54.152;19.432;2023-05-15T00:13:27;101407.72;;;18.00;39.18
66742;BME280;53654;54.152;19.432;2023-05-15T00:15:55;101404.27;;;17.97;39.13
66742;BME280;53654;54.152;19.432;2023-05-15T00:18:23;101406.50;;;17.94;39.40
66742;BME280;53654;54.152;19.432;2023-05-15T00:20:51;101402.19;;;17.90;39.45
66742;BME280;53654;54.152;19.432;2023-05-15T00:23:20;101404.47;;;17.84;39.66
66742;BME280;53654;54.152;19.432;2023-05-15T00:25:48;101403.37;;;17.80;39.67
66742;BME280;53654;54.152;19.432;2023-05-15T00:28:16;101404.48;;;17.78;39.76
66742;BME280;53654;54.152;19.432;2023-05-15T00:30:44;101399.19;;;17.71;39.94
66742;BME280;53654;54.152;19.432;2023-05-15T00:33:12;101392.45;;;17.65;40.09
66742;BME280;53654;54.152;19.432;2023-05-15T00:35:40;101390.17;;;17.64;40.08
66742;BME280;53654;54.152;19.432;2023-05-15T00:38:08;101387.10;;;17.60;40.11
66742;BME280;53654;54.152;19.432;2023-05-15T00:40:37;101381.02;;;17.57;40.24
66742;BME280;53654;54.152;19.432;2023-05-15T00:43:07;101377.41;;;17.53;40.27
66742;BME280;53654;54.152;19.432;2023-05-15T00:45:38;101376.38;;;17.53;40.21
66742;BME280;53654;54.152;19.432;2023-05-15T00:48:11;101370.96;;;17.50;40.29
66742;BME280;53654;54.152;19.432;2023-05-15T00:50:40;101372.56;;;17.44;40.35
66742;BME280;53654;54.152;19.432;2023-05-15T00:53:08;101370.05;;;17.45;40.36
66742;BME280;53654;54.152;19.432;2023-05-15T00:55:37;101364.65;;;17.43;40.47
66742;BME280;53654;54.152;19.432;2023-05-15T00:58:06;101357.05;;;17.43;40.40
66742;BME280;53654;54.152;19.432;2023-05-15T01:00:35;101358.31;;;17.42;40.45
66742;BME280;53654;54.152;19.432;2023-05-15T01:03:04;101353.76;;;17.41;40.48
66742;BME280;53654;54.152;19.432;2023-05-15T01:05:33;101356.29;;;17.38;40.53
66742;BME280;53654;54.152;19.432;2023-05-15T01:10:51;101353.09;;;17.27;40.85
66742;BME280;53654;54.152;19.432;2023-05-15T01:13:20;101351.77;;;17.23;40.92
66742;BME280;53654;54.152;19.432;2023-05-15T01:15:49;101346.50;;;17.23;40.84
66742;BME280;53654;54.152;19.432;2023-05-15T01:18:17;101349.05;;;17.19;41.02
66742;BME280;53654;54.152;19.432;2023-05-15T01:29:24;101337.66;;;17.10;41.10
66742;BME280;53654;54.152;19.432;2023-05-15T01:31:57;101338.36;;;17.10;41.14
66742;BME280;53654;54.152;19.432;2023-05-15T01:34:35;101336.23;;;17.11;41.05
66742;BME280;53654;54.152;19.432;2023-05-15T01:37:06;101333.83;;;17.08;41.28
66742;BME280;53654;54.152;19.432;2023-05-15T01:39:37;101327.63;;;17.10;41.10
66742;BME280;53654;54.152;19.432;2023-05-15T01:42:09;101325.84;;;17.11;41.17
66742;BME280;53654;54.152;19.432;2023-05-15T01:44:43;101323.51;;;17.12;41.19
66742;BME280;53654;54.152;19.432;2023-05-15T01:47:14;101322.65;;;17.12;41.24
66742;BME280;53654;54.152;19.432;2023-05-15T01:49:45;101319.45;;;17.12;41.18
66742;BME280;53654;54.152;19.432;2023-05-15T01:52:31;101320.84;;;17.13;41.13
66742;BME280;53654;54.152;19.432;2023-05-15T01:55:01;101311.56;;;17.11;41.21
66742;BME280;53654;54.152;19.432;2023-05-15T01:57:30;101311.65;;;17.14;41.14
66742;BME280;53654;54.152;19.432;2023-05-15T02:00:00;101308.42;;;17.16;41.25
66742;BME280;53654;54.152;19.432;2023-05-15T02:02:29;101304.68;;;17.17;41.09
66742;BME280;53654;54.152;19.432;2023-05-15T02:04:58;101309.05;;;17.19;41.11
66742;BME280;53654;54.152;19.432;2023-05-15T02:07:28;101304.27;;;17.19;41.20
66742;BME280;53654;54.152;19.432;2023-05-15T02:09:56;101304.14;;;17.18;41.40
66742;BME280;53654;54.152;19.432;2023-05-15T02:12:26;101306.92;;;17.13;41.48
66742;BME280;53654;54.152;19.432;2023-05-15T02:14:57;101309.93;;;17.13;41.48
66742;BME280;53654;54.152;19.432;2023-05-15T02:17:26;101301.05;;;17.08;41.72
66742;BME280;53654;54.152;19.432;2023-05-15T02:19:56;101296.21;;;17.04;41.72
66742;BME280;53654;54.152;19.432;2023-05-15T02:22:24;101296.27;;;17.02;41.82
66742;BME280;53654;54.152;19.432;2023-05-15T02:24:52;101288.69;;;16.95;42.07
66742;BME280;53654;54.152;19.432;2023-05-15T02:27:26;101284.24;;;16.97;42.07
66742;BME280;53654;54.152;19.432;2023-05-15T02:33:06;101280.50;;;16.92;42.20
66742;BME280;53654;54.152;19.432;2023-05-15T02:35:58;101277.06;;;16.89;42.25
66742;BME280;53654;54.152;19.432;2023-05-15T02:38:35;101271.04;;;16.83;42.54
66742;BME280;53654;54.152;19.432;2023-05-15T02:41:06;101262.36;;;16.85;42.47
66742;BME280;53654;54.152;19.432;2023-05-15T02:43:35;101261.69;;;16.84;42.54
66742;BME280;53654;54.152;19.432;2023-05-15T02:46:04;101259.82;;;16.88;42.40
66742;BME280;53654;54.152;19.432;2023-05-15T02:48:36;101261.31;;;16.91;42.35
66742;BME280;53654;54.152;19.432;2023-05-15T02:51:06;101261.50;;;16.91;42.51
66742;BME280;53654;54.152;19.432;2023-05-15T02:53:42;101257.07;;;16.92;42.55
66742;BME280;53654;54.152;19.432;2023-05-15T02:56:10;101249.83;;;16.92;42.42
66742;BME280;53654;54.152;19.432;2023-05-15T02:58:38;101247.81;;;16.95;42.47
66742;BME280;53654;54.152;19.432;2023-05-15T03:01:07;101241.85;;;16.94;42.36
66742;BME280;53654;54.152;19.432;2023-05-15T03:03:35;101237.39;;;16.96;42.44
66742;BME280;53654;54.152;19.432;2023-05-15T03:06:03;101235.76;;;16.98;42.32
66742;BME280;53654;54.152;19.432;2023-05-15T03:08:31;101240.29;;;17.00;42.32
66742;BME280;53654;54.152;19.432;2023-05-15T03:11:00;101238.55;;;16.99;42.37
66742;BME280;53654;54.152;19.432;2023-05-15T03:13:28;101238.23;;;16.97;42.46
66742;BME280;53654;54.152;19.432;2023-05-15T03:15:56;101231.36;;;16.97;42.39
66742;BME280;53654;54.152;19.432;2023-05-15T03:18:24;101231.54;;;16.98;42.57
66742;BME280;53654;54.152;19.432;2023-05-15T03:20:53;101231.61;;;16.95;42.59
66742;BME280;53654;54.152;19.432;2023-05-15T03:23:21;101226.00;;;16.94;42.87
66742;BME280;53654;54.152;19.432;2023-05-15T03:25:49;101222.55;;;16.91;42.89
66742;BME280;53654;54.152;19.432;2023-05-15T03:28:17;101222.61;;;16.89;43.00
66742;BME280;53654;54.152;19.432;2023-05-15T03:30:45;101225.26;;;16.88;43.12
66742;BME280;53654;54.152;19.432;2023-05-15T03:33:13;101223.70;;;16.88;43.21
66742;BME280;53654;54.152;19.432;2023-05-15T03:35:41;101217.08;;;16.85;43.38
66742;BME280;53654;54.152;19.432;2023-05-15T03:38:11;101215.38;;;16.83;43.61
66742;BME280;53654;54.152;19.432;2023-05-15T03:40:39;101215.48;;;16.79;43.69
66742;BME280;53654;54.152;19.432;2023-05-15T03:43:07;101214.02;;;16.74;43.84
66742;BME280;53654;54.152;19.432;2023-05-15T03:45:35;101209.67;;;16.72;43.97
66742;BME280;53654;54.152;19.432;2023-05-15T03:48:04;101198.43;;;16.71;44.06
66742;BME280;53654;54.152;19.432;2023-05-15T03:50:32;101192.43;;;16.71;44.03
66742;BME280;53654;54.152;19.432;2023-05-15T03:53:00;101185.54;;;16.72;44.11
66742;BME280;53654;54.152;19.432;2023-05-15T03:55:28;101188.09;;;16.69;44.03
66742;BME280;53654;54.152;19.432;2023-05-15T03:57:57;101185.02;;;16.72;44.17
66742;BME280;53654;54.152;19.432;2023-05-15T04:00:25;101182.49;;;16.74;44.13
66742;BME280;53654;54.152;19.432;2023-05-15T04:02:53;101175.95;;;16.75;44.30
66742;BME280;53654;54.152;19.432;2023-05-15T04:05:22;101179.17;;;16.73;44.48
66742;BME280;53654;54.152;19.432;2023-05-15T04:07:51;101178.28;;;16.73;44.40
66742;BME280;53654;54.152;19.432;2023-05-15T04:10:19;101184.20;;;16.69;44.67
66742;BME280;53654;54.152;19.432;2023-05-15T04:12:47;101179.33;;;16.67;44.76
66742;BME280;53654;54.152;19.432;2023-05-15T04:15:22;101180.54;;;16.68;44.85
66742;BME280;53654;54.152;19.432;2023-05-15T04:17:52;101179.65;;;16.68;45.00
66742;BME280;53654;54.152;19.432;2023-05-15T04:20:23;101181.92;;;16.69;44.96
66742;BME280;53654;54.152;19.432;2023-05-15T04:22:51;101181.39;;;16.69;45.07
66742;BME280;53654;54.152;19.432;2023-05-15T04:25:20;101174.67;;;16.70;45.06
66742;BME280;53654;54.152;19.432;2023-05-15T04:27:48;101172.48;;;16.66;45.11
66742;BME280;53654;54.152;19.432;2023-05-15T04:30:16;101166.39;;;16.70;44.97
66742;BME280;53654;54.152;19.432;2023-05-15T04:32:44;101167.25;;;16.71;44.90
66742;BME280;53654;54.152;19.432;2023-05-15T04:35:12;101163.35;;;16.72;45.00
66742;BME280;53654;54.152;19.432;2023-05-15T04:37:42;101150.38;;;16.75;44.68
66742;BME280;53654;54.152;19.432;2023-05-15T04:40:12;101150.98;;;16.80;44.62
66742;BME280;53654;54.152;19.432;2023-05-15T04:42:43;101153.34;;;16.83;44.57
66742;BME280;53654;54.152;19.432;2023-05-15T04:45:11;101154.11;;;16.87;44.39
66742;BME280;53654;54.152;19.432;2023-05-15T04:47:39;101158.34;;;16.87;44.46
66742;BME280;53654;54.152;19.432;2023-05-15T04:50:08;101163.41;;;16.89;44.24
66742;BME280;53654;54.152;19.432;2023-05-15T04:52:36;101157.95;;;16.89;44.23
66742;BME280;53654;54.152;19.432;2023-05-15T04:55:05;101152.80;;;16.90;44.34
66742;BME280;53654;54.152;19.432;2023-05-15T04:57:33;101153.49;;;16.90;44.53
66742;BME280;53654;54.152;19.432;2023-05-15T05:00:02;101146.60;;;16.91;44.59
66742;BME280;53654;54.152;19.432;2023-05-15T05:02:32;101143.63;;;16.91;44.79
66742;BME280;53654;54.152;19.432;2023-05-15T05:05:00;101145.31;;;16.87;45.04
66742;BME280;53654;54.152;19.432;2023-05-15T05:07:28;101140.06;;;16.85;44.99
66742;BME280;53654;54.152;19.432;2023-05-15T05:09:56;101133.42;;;16.84;44.95
66742;BME280;53654;54.152;19.432;2023-05-15T05:12:24;101133.22;;;16.85;45.14
66742;BME280;53654;54.152;19.432;2023-05-15T05:14:54;101127.50;;;16.88;45.01
66742;BME280;53654;54.152;19.432;2023-05-15T05:17:23;101129.60;;;16.88;44.98
66742;BME280;53654;54.152;19.432;2023-05-15T05:19:51;101125.10;;;16.91;44.89
66742;BME280;53654;54.152;19.432;2023-05-15T05:22:19;101124.74;;;16.91;44.76
66742;BME280;53654;54.152;19.432;2023-05-15T05:24:47;101128.66;;;16.90;44.93
66742;BME280;53654;54.152;19.432;2023-05-15T05:27:15;101130.69;;;16.93;44.76
66742;BME280;53654;54.152;19.432;2023-05-15T05:29:43;101124.46;;;16.95;45.00
66742;BME280;53654;54.152;19.432;2023-05-15T05:32:11;101124.50;;;16.99;45.10
66742;BME280;53654;54.152;19.432;2023-05-15T05:34:39;101123.61;;;17.00;45.11
66742;BME280;53654;54.152;19.432;2023-05-15T05:37:07;101107.38;;;17.00;45.22
66742;BME280;53654;54.152;19.432;2023-05-15T05:39:35;101109.31;;;17.01;45.23
66742;BME280;53654;54.152;19.432;2023-05-15T05:42:04;101114.97;;;17.00;44.96
66742;BME280;53654;54.152;19.432;2023-05-15T05:44:32;101114.72;;;17.02;45.13
66742;BME280;53654;54.152;19.432;2023-05-15T05:47:01;101111.20;;;17.02;45.32
66742;BME280;53654;54.152;19.432;2023-05-15T05:49:29;101113.15;;;17.02;45.29
66742;BME280;53654;54.152;19.432;2023-05-15T05:52:04;101112.33;;;17.00;45.55
66742;BME280;53654;54.152;19.432;2023-05-15T05:54:32;101114.42;;;17.01;45.63
66742;BME280;53654;54.152;19.432;2023-05-15T05:57:00;101119.52;;;17.01;45.92
66742;BME280;53654;54.152;19.432;2023-05-15T05:59:29;101123.95;;;17.00;46.14
66742;BME280;53654;54.152;19.432;2023-05-15T06:01:57;101126.17;;;17.02;46.09
66742;BME280;53654;54.152;19.432;2023-05-15T06:04:25;101118.80;;;17.01;46.13
66742;BME280;53654;54.152;19.432;2023-05-15T06:06:53;101084.21;;;17.03;46.16
66742;BME280;53654;54.152;19.432;2023-05-15T06:09:21;101119.30;;;17.03;46.34
66742;BME280;53654;54.152;19.432;2023-05-15T06:11:49;101111.39;;;17.02;46.40
66742;BME280;53654;54.152;19.432;2023-05-15T06:14:17;101110.88;;;17.01;46.65
66742;BME280;53654;54.152;19.432;2023-05-15T06:16:46;101115.86;;;16.99;46.79
66742;BME280;53654;54.152;19.432;2023-05-15T06:19:14;101114.18;;;16.97;46.98
66742;BME280;53654;54.152;19.432;2023-05-15T06:21:43;101107.61;;;16.93;47.11
66742;BME280;53654;54.152;19.432;2023-05-15T06:24:11;101108.23;;;16.90;46.88
66742;BME280;53654;54.152;19.432;2023-05-15T06:26:39;101102.25;;;16.89;46.97
66742;BME280;53654;54.152;19.432;2023-05-15T06:29:07;101099.17;;;16.86;46.93
66742;BME280;53654;54.152;19.432;2023-05-15T06:31:35;101089.55;;;16.89;46.80
66742;BME280;53654;54.152;19.432;2023-05-15T06:34:03;101086.27;;;16.93;46.80
66742;BME280;53654;54.152;19.432;2023-05-15T06:36:31;101090.94;;;16.96;46.80
66742;BME280;53654;54.152;19.432;2023-05-15T06:38:59;101088.85;;;17.01;46.80
66742;BME280;53654;54.152;19.432;2023-05-15T06:41:27;101087.29;;;17.06;46.72
66742;BME280;53654;54.152;19.432;2023-05-15T06:43:55;101085.40;;;17.11;46.45
66742;BME280;53654;54.152;19.432;2023-05-15T06:46:23;101086.73;;;17.13;46.21
66742;BME280;53654;54.152;19.432;2023-05-15T06:48:51;101083.00;;;17.15;46.09
66742;BME280;53654;54.152;19.432;2023-05-15T06:51:19;101082.38;;;17.18;46.13
66742;BME280;53654;54.152;19.432;2023-05-15T06:53:47;101099.95;;;17.20;46.19
66742;BME280;53654;54.152;19.432;2023-05-15T06:56:15;101062.38;;;17.20;46.73
66742;BME280;53654;54.152;19.432;2023-05-15T06:58:43;101045.42;;;17.21;46.83
66742;BME280;53654;54.152;19.432;2023-05-15T07:01:11;101067.06;;;17.22;46.81
66742;BME280;53654;54.152;19.432;2023-05-15T07:03:39;101052.05;;;17.24;46.86
66742;BME280;53654;54.152;19.432;2023-05-15T07:06:09;101048.61;;;17.26;46.75
66742;BME280;53654;54.152;19.432;2023-05-15T07:08:37;101048.65;;;17.30;46.83
66742;BME280;53654;54.152;19.432;2023-05-15T07:11:06;101047.34;;;17.33;46.79
66742;BME280;53654;54.152;19.432;2023-05-15T07:13:34;101038.44;;;17.36;46.49
66742;BME280;53654;54.152;19.432;2023-05-15T07:16:02;101035.52;;;17.38;46.04
66742;BME280;53654;54.152;19.432;2023-05-15T07:18:30;101037.61;;;17.45;45.90
66742;BME280;53654;54.152;19.432;2023-05-15T07:20:59;101037.28;;;17.50;45.89
66742;BME280;53654;54.152;19.432;2023-05-15T07:23:27;101033.63;;;17.53;45.65
66742;BME280;53654;54.152;19.432;2023-05-15T07:25:55;101037.73;;;17.57;45.52
66742;BME280;53654;54.152;19.432;2023-05-15T07:28:23;101049.56;;;17.57;45.41
66742;BME280;53654;54.152;19.432;2023-05-15T07:30:51;101052.47;;;17.60;45.48
66742;BME280;53654;54.152;19.432;2023-05-15T07:33:19;101049.04;;;17.62;45.56
66742;BME280;53654;54.152;19.432;2023-05-15T07:35:49;101052.08;;;17.67;45.87
66742;BME280;53654;54.152;19.432;2023-05-15T07:38:17;101052.46;;;17.72;46.01
66742;BME280;53654;54.152;19.432;2023-05-15T07:40:45;101047.80;;;17.74;46.15
66742;BME280;53654;54.152;19.432;2023-05-15T07:43:13;101046.57;;;17.74;45.90
66742;BME280;53654;54.152;19.432;2023-05-15T07:45:41;101041.88;;;17.77;45.74
66742;BME280;53654;54.152;19.432;2023-05-15T07:48:14;101040.36;;;17.80;45.61
66742;BME280;53654;54.152;19.432;2023-05-15T07:50:44;101039.68;;;17.85;45.64
66742;BME280;53654;54.152;19.432;2023-05-15T07:53:15;101036.33;;;17.85;45.32
66742;BME280;53654;54.152;19.432;2023-05-15T07:55:43;101033.19;;;17.89;45.18
66742;BME280;53654;54.152;19.432;2023-05-15T07:58:11;101035.59;;;17.90;45.05
66742;BME280;53654;54.152;19.432;2023-05-15T08:00:39;101038.02;;;17.92;45.12
66742;BME280;53654;54.152;19.432;2023-05-15T08:03:09;101039.36;;;17.94;45.41
66742;BME280;53654;54.152;19.432;2023-05-15T08:05:37;101039.45;;;17.96;45.63
66742;BME280;53654;54.152;19.432;2023-05-15T08:08:05;101029.52;;;17.98;45.54
66742;BME280;53654;54.152;19.432;2023-05-15T08:10:33;101033.34;;;18.00;45.38
66742;BME280;53654;54.152;19.432;2023-05-15T08:13:02;101034.14;;;18.02;45.29
66742;BME280;53654;54.152;19.432;2023-05-15T08:15:30;101023.96;;;18.05;45.39
66742;BME280;53654;54.152;19.432;2023-05-15T08:17:58;101032.68;;;18.08;45.46
66742;BME280;53654;54.152;19.432;2023-05-15T08:20:26;101030.70;;;18.09;45.12
66742;BME280;53654;54.152;19.432;2023-05-15T08:22:54;101019.73;;;18.10;44.81
66742;BME280;53654;54.152;19.432;2023-05-15T08:25:22;101027.49;;;18.15;44.67
66742;BME280;53654;54.152;19.432;2023-05-15T08:27:50;101025.67;;;18.16;44.82
66742;BME280;53654;54.152;19.432;2023-05-15T08:30:18;101017.95;;;18.15;44.72
66742;BME280;53654;54.152;19.432;2023-05-15T08:32:47;101010.74;;;18.14;45.15
66742;BME280;53654;54.152;19.432;2023-05-15T08:35:15;101002.38;;;18.16;45.17
66742;BME280;53654;54.152;19.432;2023-05-15T08:37:43;100998.36;;;18.20;44.96
66742;BME280;53654;54.152;19.432;2023-05-15T08:40:12;101005.88;;;18.22;44.51
66742;BME280;53654;54.152;19.432;2023-05-15T08:42:43;101007.70;;;18.20;44.35
66742;BME280;53654;54.152;19.432;2023-05-15T08:45:12;101009.09;;;18.21;44.58
66742;BME280;53654;54.152;19.432;2023-05-15T08:47:41;101001.02;;;18.25;44.97
66742;BME280;53654;54.152;19.432;2023-05-15T08:50:14;101001.60;;;18.23;44.62
66742;BME280;53654;54.152;19.432;2023-05-15T08:52:46;100999.27;;;18.24;44.58
66742;BME280;53654;54.152;19.432;2023-05-15T08:55:15;101000.16;;;18.24;44.61
66742;BME280;53654;54.152;19.432;2023-05-15T08:57:46;100994.20;;;18.28;44.62
66742;BME280;53654;54.152;19.432;2023-05-15T09:00:15;100998.63;;;18.32;44.50
66742;BME280;53654;54.152;19.432;2023-05-15T09:02:47;100992.31;;;18.36;44.36
66742;BME280;53654;54.152;19.432;2023-05-15T09:05:16;100991.55;;;18.42;44.28
66742;BME280;53654;54.152;19.432;2023-05-15T09:07:44;100987.40;;;18.49;44.16
66742;BME280;53654;54.152;19.432;2023-05-15T09:10:13;100986.98;;;18.55;44.10
66742;BME280;53654;54.152;19.432;2023-05-15T09:12:42;100996.52;;;18.61;44.01
66742;BME280;53654;54.152;19.432;2023-05-15T09:15:15;100995.17;;;18.64;44.01
66742;BME280;53654;54.152;19.432;2023-05-15T09:17:44;100999.63;;;18.67;44.03
66742;BME280;53654;54.152;19.432;2023-05-15T09:20:29;101001.54;;;18.68;44.18
66742;BME280;53654;54.152;19.432;2023-05-15T09:22:59;100991.02;;;18.67;44.20
66742;BME280;53654;54.152;19.432;2023-05-15T09:25:39;100997.75;;;18.71;44.58
66742;BME280;53654;54.152;19.432;2023-05-15T09:28:09;100996.67;;;18.71;45.04
66742;BME280;53654;54.152;19.432;2023-05-15T09:30:40;100991.38;;;18.71;45.34
66742;BME280;53654;54.152;19.432;2023-05-15T09:33:10;100993.88;;;18.66;45.97
66742;BME280;53654;54.152;19.432;2023-05-15T09:35:39;101001.31;;;18.60;45.74
66742;BME280;53654;54.152;19.432;2023-05-15T09:38:10;101012.46;;;18.50;45.93
66742;BME280;53654;54.152;19.432;2023-05-15T09:40:39;101006.89;;;18.38;46.44
66742;BME280;53654;54.152;19.432;2023-05-15T09:43:10;100999.19;;;18.31;47.51
66742;BME280;53654;54.152;19.432;2023-05-15T09:45:41;101010.67;;;18.21;48.05
66742;BME280;53654;54.152;19.432;2023-05-15T09:48:10;101003.27;;;18.16;48.87
66742;BME280;53654;54.152;19.432;2023-05-15T09:50:40;101000.54;;;18.09;50.09
66742;BME280;53654;54.152;19.432;2023-05-15T09:53:10;100996.60;;;17.95;49.83
66742;BME280;53654;54.152;19.432;2023-05-15T09:55:41;100996.95;;;17.90;51.18
66742;BME280;53654;54.152;19.432;2023-05-15T09:58:11;100998.77;;;17.79;52.20
66742;BME280;53654;54.152;19.432;2023-05-15T10:00:41;100996.16;;;17.78;52.88
66742;BME280;53654;54.152;19.432;2023-05-15T10:03:19;100988.69;;;17.68;53.74
66742;BME280;53654;54.152;19.432;2023-05-15T10:05:48;100971.65;;;17.61;53.69
66742;BME280;53654;54.152;19.432;2023-05-15T10:08:25;100958.09;;;17.49;53.31
66742;BME280;53654;54.152;19.432;2023-05-15T10:10:57;100944.66;;;17.40;53.48
66742;BME280;53654;54.152;19.432;2023-05-15T10:13:26;100931.21;;;17.36;53.63
66742;BME280;53654;54.152;19.432;2023-05-15T10:15:58;100921.36;;;17.30;53.91
66742;BME280;53654;54.152;19.432;2023-05-15T10:18:29;100916.98;;;17.24;54.16
66742;BME280;53654;54.152;19.432;2023-05-15T10:20:59;100913.22;;;17.21;54.53
66742;BME280;53654;54.152;19.432;2023-05-15T10:23:33;100909.08;;;17.18;55.19
66742;BME280;53654;54.152;19.432;2023-05-15T10:26:10;100903.83;;;17.17;55.28
66742;BME280;53654;54.152;19.432;2023-05-15T10:28:41;100893.77;;;17.17;54.11
66742;BME280;53654;54.152;19.432;2023-05-15T10:31:12;100888.11;;;17.23;53.54
66742;BME280;53654;54.152;19.432;2023-05-15T10:33:40;100891.23;;;17.30;52.82
66742;BME280;53654;54.152;19.432;2023-05-15T10:36:10;100886.61;;;17.35;52.07
66742;BME280;53654;54.152;19.432;2023-05-15T10:38:39;100881.33;;;17.40;51.36
66742;BME280;53654;54.152;19.432;2023-05-15T10:41:10;100878.84;;;17.52;51.60
66742;BME280;53654;54.152;19.432;2023-05-15T10:43:45;100882.52;;;17.62;51.29
66742;BME280;53654;54.152;19.432;2023-05-15T10:46:14;100876.14;;;17.74;50.92
66742;BME280;53654;54.152;19.432;2023-05-15T10:48:42;100871.50;;;17.85;50.88
66742;BME280;53654;54.152;19.432;2023-05-15T10:51:22;100862.77;;;17.92;50.49
66742;BME280;53654;54.152;19.432;2023-05-15T10:53:51;100861.23;;;18.00;50.62
66742;BME280;53654;54.152;19.432;2023-05-15T10:56:19;100854.69;;;18.05;50.19
66742;BME280;53654;54.152;19.432;2023-05-15T10:58:50;100847.01;;;18.12;50.53
66742;BME280;53654;54.152;19.432;2023-05-15T11:01:25;100843.91;;;18.19;50.30
66742;BME280;53654;54.152;19.432;2023-05-15T11:04:15;100841.73;;;18.25;50.37
66742;BME280;53654;54.152;19.432;2023-05-15T11:06:48;100841.89;;;18.30;50.19
66742;BME280;53654;54.152;19.432;2023-05-15T11:11:57;100851.59;;;18.35;50.13
66742;BME280;53654;54.152;19.432;2023-05-15T11:14:26;100852.42;;;18.36;50.47
66742;BME280;53654;54.152;19.432;2023-05-15T11:22:29;100843.78;;;18.41;52.16
66742;BME280;53654;54.152;19.432;2023-05-15T11:25:08;100845.84;;;18.42;51.46
66742;BME280;53654;54.152;19.432;2023-05-15T11:27:42;100842.45;;;18.43;51.37
66742;BME280;53654;54.152;19.432;2023-05-15T11:30:34;100842.66;;;18.47;50.82
66742;BME280;53654;54.152;19.432;2023-05-15T11:33:09;100836.21;;;18.53;50.75
66742;BME280;53654;54.152;19.432;2023-05-15T11:35:41;100834.02;;;18.55;50.65
66742;BME280;53654;54.152;19.432;2023-05-15T11:38:15;100833.39;;;18.53;50.62
66742;BME280;53654;54.152;19.432;2023-05-15T11:46:04;100815.53;;;18.63;51.64
66742;BME280;53654;54.152;19.432;2023-05-15T11:48:41;100821.71;;;18.63;51.73
66742;BME280;53654;54.152;19.432;2023-05-15T11:51:18;100818.91;;;18.67;51.87
66742;BME280;53654;54.152;19.432;2023-05-15T11:53:49;100818.77;;;18.70;52.19
66742;BME280;53654;54.152;19.432;2023-05-15T11:56:20;100817.55;;;18.70;51.58
66742;BME280;53654;54.152;19.432;2023-05-15T11:58:59;100815.59;;;18.66;51.36
66742;BME280;53654;54.152;19.432;2023-05-15T12:01:40;100818.95;;;18.66;52.24
66742;BME280;53654;54.152;19.432;2023-05-15T12:04:16;100824.38;;;18.53;51.76
66742;BME280;53654;54.152;19.432;2023-05-15T12:06:46;100820.09;;;18.45;51.53
66742;BME280;53654;54.152;19.432;2023-05-15T12:09:16;100812.88;;;18.41;51.63
66742;BME280;53654;54.152;19.432;2023-05-15T12:11:53;100810.71;;;18.37;51.68
66742;BME280;53654;54.152;19.432;2023-05-15T12:14:26;100807.83;;;18.34;52.20
66742;BME280;53654;54.152;19.432;2023-05-15T12:16:59;100810.09;;;18.30;52.51
66742;BME280;53654;54.152;19.432;2023-05-15T12:19:30;100816.52;;;18.28;52.94
66742;BME280;53654;54.152;19.432;2023-05-15T12:21:58;100817.19;;;18.29;53.12
66742;BME280;53654;54.152;19.432;2023-05-15T12:24:26;100819.63;;;18.26;52.68
66742;BME280;53654;54.152;19.432;2023-05-15T12:26:54;100817.88;;;18.30;53.02
66742;BME280;53654;54.152;19.432;2023-05-15T12:29:25;100821.77;;;18.21;52.76
66742;BME280;53654;54.152;19.432;2023-05-15T12:31:53;100820.94;;;18.24;52.85
66742;BME280;53654;54.152;19.432;2023-05-15T12:34:21;100823.64;;;18.18;52.63
66742;BME280;53654;54.152;19.432;2023-05-15T12:36:50;100837.02;;;17.96;52.41
66742;BME280;53654;54.152;19.432;2023-05-15T12:39:18;100829.13;;;17.95;52.75
66742;BME280;53654;54.152;19.432;2023-05-15T12:41:46;100834.38;;;17.91;52.71
66742;BME280;53654;54.152;19.432;2023-05-15T12:44:17;100834.73;;;17.91;52.88
66742;BME280;53654;54.152;19.432;2023-05-15T12:46:46;100833.87;;;17.81;52.71
66742;BME280;53654;54.152;19.432;2023-05-15T12:49:20;100823.61;;;17.77;53.28
66742;BME280;53654;54.152;19.432;2023-05-15T12:51:49;100821.40;;;17.64;53.25
66742;BME280;53654;54.152;19.432;2023-05-15T12:54:20;100823.20;;;17.63;53.85
66742;BME280;53654;54.152;19.432;2023-05-15T12:56:48;100824.68;;;17.61;53.67
66742;BME280;53654;54.152;19.432;2023-05-15T12:59:17;100826.61;;;17.57;54.08
66742;BME280;53654;54.152;19.432;2023-05-15T13:01:45;100820.37;;;17.49;53.61
66742;BME280;53654;54.152;19.432;2023-05-15T13:04:15;100811.05;;;17.43;54.50
66742;BME280;53654;54.152;19.432;2023-05-15T13:06:43;100811.36;;;17.34;54.60
66742;BME280;53654;54.152;19.432;2023-05-15T13:09:20;100800.52;;;17.22;55.82
66742;BME280;53654;54.152;19.432;2023-05-15T13:11:49;100811.41;;;17.13;56.29
66742;BME280;53654;54.152;19.432;2023-05-15T13:14:17;100806.75;;;17.00;57.50
66742;BME280;53654;54.152;19.432;2023-05-15T13:16:46;100807.55;;;16.92;58.54
66742;BME280;53654;54.152;19.432;2023-05-15T13:19:14;100798.92;;;16.71;60.40
66742;BME280;53654;54.152;19.432;2023-05-15T13:21:43;100798.73;;;16.59;61.40